sensor_id;sensor_type;location;lat;lon;timestamp;P1;durP1;ratioP1;P2;durP2;ratioP2
76403;SDS011;65232;48.358;2.122;2023-01-28T00:00:15;16.40;;;10.80;;
76403;SDS011;65232;48.358;2.122;2023-01-28T00:00:40;17.75;;;11.30;;
76403;SDS011;65232;48.358;2.122;2023-01-28T00:01:06;17.25;;;10.70;;
76403;SDS011;65232;48.358;2.122;2023-01-28T00:01:33;16.50;;;10.95;;
76403;SDS011;65232;48.358;2.122;2023-01-28T00:01:58;18.33;;;11.48;;
76403;SDS011;65232;48.358;2.122;2023-01-28T00:02:23;17.95;;;11.68;;
76403;SDS011;65232;48.358;2.122;2023-01-28T00:02:49;19.95;;;11.98;;
76403;SDS011;65232;48.358;2.122;2023-01-28T00:03:14;17.52;;;11.40;;
76403;SDS011;65232;48.358;2.122;2023-01-28T00:03:40;17.70;;;10.63;;
76403;SDS011;65232;48.358;2.122;2023-01-28T00:04:06;16.58;;;10.95;;
76403;SDS011;65232;48.358;2.122;2023-01-28T00:04:31;16.23;;;10.30;;
76403;SDS011;65232;48.358;2.122;2023-01-28T00:04:57;18.65;;;11.50;;
76403;SDS011;65232;48.358;2.122;2023-01-28T00:05:22;19.60;;;11.43;;
76403;SDS011;65232;48.358;2.122;2023-01-28T00:05:48;18.00;;;11.57;;
76403;SDS011;65232;48.358;2.122;2023-01-28T00:06:14;17.40;;;10.88;;
76403;SDS011;65232;48.358;2.122;2023-01-28T00:06:39;19.48;;;11.73;;
76403;SDS011;65232;48.358;2.122;2023-01-28T00:07:05;15.32;;;10.80;;
76403;SDS011;65232;48.358;2.122;2023-01-28T00:07:31;17.20;;;10.80;;
76403;SDS011;65232;48.358;2.122;2023-01-28T00:07:56;19.67;;;12.27;;
76403;SDS011;65232;48.358;2.122;2023-01-28T00:08:22;18.70;;;11.68;;
76403;SDS011;65232;48.358;2.122;2023-01-28T00:08:47;18.67;;;12.00;;
76403;SDS011;65232;48.358;2.122;2023-01-28T00:09:13;17.70;;;11.05;;
76403;SDS011;65232;48.358;2.122;2023-01-28T00:09:38;18.65;;;11.73;;
76403;SDS011;65232;48.358;2.122;2023-01-28T00:10:04;19.23;;;12.18;;
76403;SDS011;65232;48.358;2.122;2023-01-28T00:10:30;18.13;;;11.50;;
76403;SDS011;65232;48.358;2.122;2023-01-28T00:10:59;19.90;;;12.25;;
76403;SDS011;65232;48.358;2.122;2023-01-28T00:11:28;19.02;;;11.43;;
76403;SDS011;65232;48.358;2.122;2023-01-28T00:11:53;18.15;;;11.60;;
76403;SDS011;65232;48.358;2.122;2023-01-28T00:12:19;17.83;;;10.25;;
76403;SDS011;65232;48.358;2.122;2023-01-28T00:12:44;18.33;;;11.07;;
76403;SDS011;65232;48.358;2.122;2023-01-28T00:13:11;16.33;;;10.75;;
76403;SDS011;65232;48.358;2.122;2023-01-28T00:13:38;18.15;;;10.85;;
76403;SDS011;65232;48.358;2.122;2023-01-28T00:14:04;20.88;;;11.98;;
76403;SDS011;65232;48.358;2.122;2023-01-28T00:14:30;17.75;;;10.75;;
76403;SDS011;65232;48.358;2.122;2023-01-28T00:14:55;18.50;;;11.10;;
76403;SDS011;65232;48.358;2.122;2023-01-28T00:15:21;18.33;;;11.07;;
76403;SDS011;65232;48.358;2.122;2023-01-28T00:15:53;18.15;;;11.63;;
76403;SDS011;65232;48.358;2.122;2023-01-28T00:16:51;17.00;;;10.98;;
76403;SDS011;65232;48.358;2.122;2023-01-28T00:17:17;18.88;;;11.73;;
76403;SDS011;65232;48.358;2.122;2023-01-28T00:17:42;17.92;;;11.20;;
76403;SDS011;65232;48.358;2.122;2023-01-28T00:18:08;18.05;;;10.35;;
76403;SDS011;65232;48.358;2.122;2023-01-28T00:18:33;18.73;;;11.23;;
76403;SDS011;65232;48.358;2.122;2023-01-28T00:18:59;16.95;;;10.90;;
76403;SDS011;65232;48.358;2.122;2023-01-28T00:19:24;17.40;;;10.30;;
76403;SDS011;65232;48.358;2.122;2023-01-28T00:19:50;19.90;;;11.13;;
76403;SDS011;65232;48.358;2.122;2023-01-28T00:20:15;17.52;;;10.93;;
76403;SDS011;65232;48.358;2.122;2023-01-28T00:20:41;15.40;;;10.88;;
76403;SDS011;65232;48.358;2.122;2023-01-28T00:21:08;18.65;;;11.60;;
76403;SDS011;65232;48.358;2.122;2023-01-28T00:21:36;18.17;;;11.70;;
76403;SDS011;65232;48.358;2.122;2023-01-28T00:22:01;18.95;;;12.05;;
76403;SDS011;65232;48.358;2.122;2023-01-28T00:22:28;17.80;;;11.27;;
76403;SDS011;65232;48.358;2.122;2023-01-28T00:22:54;18.13;;;12.02;;
76403;SDS011;65232;48.358;2.122;2023-01-28T00:23:19;18.90;;;11.70;;
76403;SDS011;65232;48.358;2.122;2023-01-28T00:23:51;21.38;;;12.68;;
76403;SDS011;65232;48.358;2.122;2023-01-28T00:24:18;17.08;;;10.75;;
76403;SDS011;65232;48.358;2.122;2023-01-28T00:24:44;18.55;;;11.65;;
76403;SDS011;65232;48.358;2.122;2023-01-28T00:25:10;19.05;;;12.13;;
76403;SDS011;65232;48.358;2.122;2023-01-28T00:25:35;18.60;;;12.02;;
76403;SDS011;65232;48.358;2.122;2023-01-28T00:26:02;17.85;;;12.30;;
76403;SDS011;65232;48.358;2.122;2023-01-28T00:26:30;18.38;;;11.38;;
76403;SDS011;65232;48.358;2.122;2023-01-28T00:26:55;17.17;;;11.23;;
76403;SDS011;65232;48.358;2.122;2023-01-28T00:27:21;21.23;;;12.48;;
76403;SDS011;65232;48.358;2.122;2023-01-28T00:27:46;18.85;;;12.20;;
76403;SDS011;65232;48.358;2.122;2023-01-28T00:28:14;18.52;;;11.43;;
76403;SDS011;65232;48.358;2.122;2023-01-28T00:28:40;19.80;;;11.45;;
76403;SDS011;65232;48.358;2.122;2023-01-28T00:29:06;16.83;;;10.60;;
76403;SDS011;65232;48.358;2.122;2023-01-28T00:29:31;20.65;;;11.35;;
76403;SDS011;65232;48.358;2.122;2023-01-28T00:29:57;19.75;;;12.02;;
76403;SDS011;65232;48.358;2.122;2023-01-28T00:30:22;18.00;;;12.07;;
76403;SDS011;65232;48.358;2.122;2023-01-28T00:30:48;20.33;;;12.52;;
76403;SDS011;65232;48.358;2.122;2023-01-28T00:31:17;19.33;;;12.32;;
76403;SDS011;65232;48.358;2.122;2023-01-28T00:31:43;23.00;;;12.45;;
76403;SDS011;65232;48.358;2.122;2023-01-28T00:32:09;21.58;;;13.50;;
76403;SDS011;65232;48.358;2.122;2023-01-28T00:32:35;18.65;;;11.82;;
76403;SDS011;65232;48.358;2.122;2023-01-28T00:33:00;20.17;;;12.45;;
76403;SDS011;65232;48.358;2.122;2023-01-28T00:33:26;22.20;;;13.57;;
76403;SDS011;65232;48.358;2.122;2023-01-28T00:33:54;21.73;;;12.90;;
76403;SDS011;65232;48.358;2.122;2023-01-28T00:34:20;20.85;;;12.38;;
76403;SDS011;65232;48.358;2.122;2023-01-28T00:34:46;24.83;;;11.63;;
76403;SDS011;65232;48.358;2.122;2023-01-28T00:35:14;19.98;;;12.57;;
76403;SDS011;65232;48.358;2.122;2023-01-28T00:35:40;20.88;;;12.40;;
76403;SDS011;65232;48.358;2.122;2023-01-28T00:36:05;19.48;;;11.65;;
76403;SDS011;65232;48.358;2.122;2023-01-28T00:36:31;17.20;;;11.10;;
76403;SDS011;65232;48.358;2.122;2023-01-28T00:36:57;19.10;;;12.07;;
76403;SDS011;65232;48.358;2.122;2023-01-28T00:37:23;17.80;;;11.25;;
76403;SDS011;65232;48.358;2.122;2023-01-28T00:37:48;18.38;;;11.20;;
76403;SDS011;65232;48.358;2.122;2023-01-28T00:38:14;19.38;;;11.52;;
76403;SDS011;65232;48.358;2.122;2023-01-28T00:38:40;20.05;;;12.73;;
76403;SDS011;65232;48.358;2.122;2023-01-28T00:39:09;20.75;;;11.63;;
76403;SDS011;65232;48.358;2.122;2023-01-28T00:39:40;19.58;;;11.50;;
76403;SDS011;65232;48.358;2.122;2023-01-28T00:40:06;17.60;;;10.93;;
76403;SDS011;65232;48.358;2.122;2023-01-28T00:40:33;19.83;;;11.57;;
76403;SDS011;65232;48.358;2.122;2023-01-28T00:41:09;18.52;;;11.60;;
76403;SDS011;65232;48.358;2.122;2023-01-28T00:41:35;17.98;;;11.02;;
76403;SDS011;65232;48.358;2.122;2023-01-28T00:42:01;17.23;;;11.18;;
76403;SDS011;65232;48.358;2.122;2023-01-28T00:42:27;19.15;;;11.73;;
76403;SDS011;65232;48.358;2.122;2023-01-28T00:42:54;18.65;;;11.45;;
76403;SDS011;65232;48.358;2.122;2023-01-28T00:43:20;19.05;;;12.63;;
76403;SDS011;65232;48.358;2.122;2023-01-28T00:44:11;17.27;;;9.65;;
76403;SDS011;65232;48.358;2.122;2023-01-28T00:44:37;17.67;;;10.02;;
76403;SDS011;65232;48.358;2.122;2023-01-28T00:45:02;17.30;;;11.30;;
76403;SDS011;65232;48.358;2.122;2023-01-28T00:45:28;17.58;;;10.80;;
76403;SDS011;65232;48.358;2.122;2023-01-28T00:45:54;17.40;;;10.65;;
76403;SDS011;65232;48.358;2.122;2023-01-28T00:46:20;19.45;;;11.45;;
76403;SDS011;65232;48.358;2.122;2023-01-28T00:46:46;19.50;;;11.77;;
76403;SDS011;65232;48.358;2.122;2023-01-28T00:47:12;18.65;;;11.32;;
76403;SDS011;65232;48.358;2.122;2023-01-28T00:47:38;20.70;;;12.55;;
76403;SDS011;65232;48.358;2.122;2023-01-28T00:48:03;18.27;;;11.85;;
76403;SDS011;65232;48.358;2.122;2023-01-28T00:48:30;19.00;;;12.20;;
76403;SDS011;65232;48.358;2.122;2023-01-28T00:48:56;18.80;;;11.13;;
76403;SDS011;65232;48.358;2.122;2023-01-28T00:49:21;19.40;;;11.98;;
76403;SDS011;65232;48.358;2.122;2023-01-28T00:49:47;18.50;;;11.77;;
76403;SDS011;65232;48.358;2.122;2023-01-28T00:50:12;19.88;;;12.38;;
76403;SDS011;65232;48.358;2.122;2023-01-28T00:50:38;18.85;;;11.57;;
76403;SDS011;65232;48.358;2.122;2023-01-28T00:51:06;20.40;;;11.75;;
76403;SDS011;65232;48.358;2.122;2023-01-28T00:51:32;19.52;;;12.18;;
76403;SDS011;65232;48.358;2.122;2023-01-28T00:51:58;19.83;;;12.35;;
76403;SDS011;65232;48.358;2.122;2023-01-28T00:52:23;17.58;;;11.38;;
76403;SDS011;65232;48.358;2.122;2023-01-28T00:52:49;18.90;;;12.23;;
76403;SDS011;65232;48.358;2.122;2023-01-28T00:53:16;19.58;;;12.45;;
76403;SDS011;65232;48.358;2.122;2023-01-28T00:53:43;19.58;;;11.80;;
76403;SDS011;65232;48.358;2.122;2023-01-28T00:54:11;19.25;;;11.68;;
76403;SDS011;65232;48.358;2.122;2023-01-28T00:54:37;19.00;;;12.02;;
76403;SDS011;65232;48.358;2.122;2023-01-28T00:55:03;20.70;;;12.45;;
76403;SDS011;65232;48.358;2.122;2023-01-28T00:55:28;18.08;;;11.57;;
76403;SDS011;65232;48.358;2.122;2023-01-28T00:55:54;20.23;;;12.10;;
76403;SDS011;65232;48.358;2.122;2023-01-28T00:56:19;19.88;;;11.85;;
76403;SDS011;65232;48.358;2.122;2023-01-28T00:56:45;21.15;;;13.07;;
76403;SDS011;65232;48.358;2.122;2023-01-28T00:57:10;19.05;;;11.95;;
76403;SDS011;65232;48.358;2.122;2023-01-28T00:57:36;18.52;;;11.98;;
76403;SDS011;65232;48.358;2.122;2023-01-28T00:58:02;19.83;;;12.27;;
76403;SDS011;65232;48.358;2.122;2023-01-28T00:58:27;19.63;;;11.90;;
76403;SDS011;65232;48.358;2.122;2023-01-28T00:58:53;17.73;;;11.43;;
76403;SDS011;65232;48.358;2.122;2023-01-28T00:59:19;19.38;;;11.77;;
76403;SDS011;65232;48.358;2.122;2023-01-28T00:59:45;18.63;;;11.35;;
76403;SDS011;65232;48.358;2.122;2023-01-28T01:00:11;18.15;;;11.20;;
76403;SDS011;65232;48.358;2.122;2023-01-28T01:00:37;18.90;;;12.23;;
76403;SDS011;65232;48.358;2.122;2023-01-28T01:01:21;19.83;;;12.15;;
76403;SDS011;65232;48.358;2.122;2023-01-28T01:01:48;19.15;;;11.20;;
76403;SDS011;65232;48.358;2.122;2023-01-28T01:02:14;19.35;;;11.80;;
76403;SDS011;65232;48.358;2.122;2023-01-28T01:02:39;20.52;;;11.63;;
76403;SDS011;65232;48.358;2.122;2023-01-28T01:03:05;17.38;;;10.32;;
76403;SDS011;65232;48.358;2.122;2023-01-28T01:03:30;21.20;;;11.48;;
76403;SDS011;65232;48.358;2.122;2023-01-28T01:03:56;19.60;;;11.43;;
76403;SDS011;65232;48.358;2.122;2023-01-28T01:04:27;19.50;;;11.30;;
76403;SDS011;65232;48.358;2.122;2023-01-28T01:05:01;19.38;;;11.07;;
76403;SDS011;65232;48.358;2.122;2023-01-28T01:05:27;17.42;;;10.88;;
76403;SDS011;65232;48.358;2.122;2023-01-28T01:05:56;18.45;;;10.95;;
76403;SDS011;65232;48.358;2.122;2023-01-28T01:06:22;18.63;;;11.57;;
76403;SDS011;65232;48.358;2.122;2023-01-28T01:06:48;18.15;;;11.80;;
76403;SDS011;65232;48.358;2.122;2023-01-28T01:07:14;17.58;;;11.60;;
76403;SDS011;65232;48.358;2.122;2023-01-28T01:07:39;18.02;;;11.07;;
76403;SDS011;65232;48.358;2.122;2023-01-28T01:08:08;18.95;;;11.48;;
76403;SDS011;65232;48.358;2.122;2023-01-28T01:08:35;19.08;;;12.10;;
76403;SDS011;65232;48.358;2.122;2023-01-28T01:09:07;20.17;;;10.90;;
76403;SDS011;65232;48.358;2.122;2023-01-28T01:09:34;20.98;;;12.20;;
76403;SDS011;65232;48.358;2.122;2023-01-28T01:10:01;18.60;;;11.23;;
76403;SDS011;65232;48.358;2.122;2023-01-28T01:10:26;17.73;;;11.40;;
76403;SDS011;65232;48.358;2.122;2023-01-28T01:10:52;18.17;;;11.63;;
76403;SDS011;65232;48.358;2.122;2023-01-28T01:11:23;18.42;;;10.75;;
76403;SDS011;65232;48.358;2.122;2023-01-28T01:11:48;21.58;;;12.65;;
76403;SDS011;65232;48.358;2.122;2023-01-28T01:12:14;19.13;;;12.52;;
76403;SDS011;65232;48.358;2.122;2023-01-28T01:12:39;19.42;;;11.52;;
76403;SDS011;65232;48.358;2.122;2023-01-28T01:13:05;19.95;;;11.73;;
76403;SDS011;65232;48.358;2.122;2023-01-28T01:13:33;18.63;;;12.07;;
76403;SDS011;65232;48.358;2.122;2023-01-28T01:14:02;21.20;;;12.45;;
76403;SDS011;65232;48.358;2.122;2023-01-28T01:14:29;19.15;;;12.00;;
76403;SDS011;65232;48.358;2.122;2023-01-28T01:14:55;19.08;;;12.75;;
76403;SDS011;65232;48.358;2.122;2023-01-28T01:15:22;22.15;;;11.82;;
76403;SDS011;65232;48.358;2.122;2023-01-28T01:15:47;20.08;;;12.02;;
76403;SDS011;65232;48.358;2.122;2023-01-28T01:16:13;20.13;;;12.40;;
76403;SDS011;65232;48.358;2.122;2023-01-28T01:16:40;19.15;;;12.23;;
76403;SDS011;65232;48.358;2.122;2023-01-28T01:17:06;18.25;;;11.60;;
76403;SDS011;65232;48.358;2.122;2023-01-28T01:17:31;16.50;;;10.70;;
76403;SDS011;65232;48.358;2.122;2023-01-28T01:17:57;20.38;;;11.63;;
76403;SDS011;65232;48.358;2.122;2023-01-28T01:18:24;17.85;;;10.75;;
76403;SDS011;65232;48.358;2.122;2023-01-28T01:18:50;20.20;;;12.57;;
76403;SDS011;65232;48.358;2.122;2023-01-28T01:19:17;21.02;;;12.23;;
76403;SDS011;65232;48.358;2.122;2023-01-28T01:19:42;18.88;;;11.43;;
76403;SDS011;65232;48.358;2.122;2023-01-28T01:20:10;18.73;;;11.93;;
76403;SDS011;65232;48.358;2.122;2023-01-28T01:20:37;20.95;;;12.15;;
76403;SDS011;65232;48.358;2.122;2023-01-28T01:21:10;19.48;;;11.68;;
76403;SDS011;65232;48.358;2.122;2023-01-28T01:21:38;17.75;;;10.60;;
76403;SDS011;65232;48.358;2.122;2023-01-28T01:22:03;19.35;;;12.07;;
76403;SDS011;65232;48.358;2.122;2023-01-28T01:22:31;18.25;;;11.60;;
76403;SDS011;65232;48.358;2.122;2023-01-28T01:23:00;18.75;;;11.20;;
76403;SDS011;65232;48.358;2.122;2023-01-28T01:23:26;20.65;;;12.27;;
76403;SDS011;65232;48.358;2.122;2023-01-28T01:23:52;19.38;;;11.82;;
76403;SDS011;65232;48.358;2.122;2023-01-28T01:24:18;18.90;;;11.68;;
76403;SDS011;65232;48.358;2.122;2023-01-28T01:24:43;20.17;;;12.65;;
76403;SDS011;65232;48.358;2.122;2023-01-28T01:25:09;18.17;;;11.77;;
76403;SDS011;65232;48.358;2.122;2023-01-28T01:25:38;17.55;;;11.02;;
76403;SDS011;65232;48.358;2.122;2023-01-28T01:26:04;20.02;;;12.52;;
76403;SDS011;65232;48.358;2.122;2023-01-28T01:26:56;17.67;;;10.32;;
76403;SDS011;65232;48.358;2.122;2023-01-28T01:27:21;17.27;;;10.60;;
76403;SDS011;65232;48.358;2.122;2023-01-28T01:27:47;16.23;;;10.68;;
76403;SDS011;65232;48.358;2.122;2023-01-28T01:28:14;16.60;;;10.50;;
76403;SDS011;65232;48.358;2.122;2023-01-28T01:28:40;18.52;;;11.40;;
76403;SDS011;65232;48.358;2.122;2023-01-28T01:29:05;18.42;;;11.60;;
76403;SDS011;65232;48.358;2.122;2023-01-28T01:29:33;18.45;;;10.55;;
76403;SDS011;65232;48.358;2.122;2023-01-28T01:29:59;17.95;;;11.38;;
76403;SDS011;65232;48.358;2.122;2023-01-28T01:30:25;18.73;;;11.77;;
76403;SDS011;65232;48.358;2.122;2023-01-28T01:30:57;18.98;;;12.45;;
76403;SDS011;65232;48.358;2.122;2023-01-28T01:31:25;18.75;;;11.60;;
76403;SDS011;65232;48.358;2.122;2023-01-28T01:31:51;18.13;;;11.18;;
76403;SDS011;65232;48.358;2.122;2023-01-28T01:32:16;17.95;;;10.98;;
76403;SDS011;65232;48.358;2.122;2023-01-28T01:32:42;19.75;;;11.30;;
76403;SDS011;65232;48.358;2.122;2023-01-28T01:33:08;18.45;;;11.23;;
76403;SDS011;65232;48.358;2.122;2023-01-28T01:33:33;19.90;;;12.13;;
76403;SDS011;65232;48.358;2.122;2023-01-28T01:33:59;18.20;;;11.52;;
76403;SDS011;65232;48.358;2.122;2023-01-28T01:34:24;17.83;;;10.85;;
76403;SDS011;65232;48.358;2.122;2023-01-28T01:34:50;19.55;;;11.45;;
76403;SDS011;65232;48.358;2.122;2023-01-28T01:35:16;19.50;;;11.70;;
76403;SDS011;65232;48.358;2.122;2023-01-28T01:35:41;19.45;;;12.40;;
76403;SDS011;65232;48.358;2.122;2023-01-28T01:36:07;19.13;;;11.60;;
76403;SDS011;65232;48.358;2.122;2023-01-28T01:36:58;17.17;;;9.73;;
76403;SDS011;65232;48.358;2.122;2023-01-28T01:37:24;20.77;;;11.18;;
76403;SDS011;65232;48.358;2.122;2023-01-28T01:37:49;18.17;;;11.68;;
76403;SDS011;65232;48.358;2.122;2023-01-28T01:38:15;21.00;;;11.63;;
76403;SDS011;65232;48.358;2.122;2023-01-28T01:38:40;20.20;;;11.00;;
76403;SDS011;65232;48.358;2.122;2023-01-28T01:39:08;20.13;;;11.93;;
76403;SDS011;65232;48.358;2.122;2023-01-28T01:39:36;18.63;;;11.48;;
76403;SDS011;65232;48.358;2.122;2023-01-28T01:40:02;18.30;;;11.07;;
76403;SDS011;65232;48.358;2.122;2023-01-28T01:40:31;19.48;;;11.70;;
76403;SDS011;65232;48.358;2.122;2023-01-28T01:40:59;17.55;;;10.30;;
76403;SDS011;65232;48.358;2.122;2023-01-28T01:41:27;17.95;;;10.45;;
76403;SDS011;65232;48.358;2.122;2023-01-28T01:41:55;18.80;;;11.60;;
76403;SDS011;65232;48.358;2.122;2023-01-28T01:42:21;19.02;;;10.68;;
76403;SDS011;65232;48.358;2.122;2023-01-28T01:42:49;18.05;;;10.82;;
76403;SDS011;65232;48.358;2.122;2023-01-28T01:43:18;21.40;;;11.60;;
76403;SDS011;65232;48.358;2.122;2023-01-28T01:45:21;16.63;;;9.25;;
76403;SDS011;65232;48.358;2.122;2023-01-28T01:45:48;17.80;;;10.23;;
76403;SDS011;65232;48.358;2.122;2023-01-28T01:46:19;16.63;;;10.52;;
76403;SDS011;65232;48.358;2.122;2023-01-28T01:46:49;19.50;;;10.25;;
76403;SDS011;65232;48.358;2.122;2023-01-28T01:47:15;18.73;;;11.20;;
76403;SDS011;65232;48.358;2.122;2023-01-28T01:48:27;18.98;;;10.48;;
76403;SDS011;65232;48.358;2.122;2023-01-28T01:48:56;16.50;;;9.82;;
76403;SDS011;65232;48.358;2.122;2023-01-28T01:49:30;20.08;;;9.95;;
76403;SDS011;65232;48.358;2.122;2023-01-28T01:49:56;20.02;;;11.00;;
76403;SDS011;65232;48.358;2.122;2023-01-28T01:50:36;17.90;;;10.57;;
76403;SDS011;65232;48.358;2.122;2023-01-28T01:51:07;17.83;;;10.40;;
76403;SDS011;65232;48.358;2.122;2023-01-28T01:51:37;19.45;;;10.93;;
76403;SDS011;65232;48.358;2.122;2023-01-28T01:52:05;17.20;;;10.38;;
76403;SDS011;65232;48.358;2.122;2023-01-28T01:52:37;19.67;;;9.75;;
76403;SDS011;65232;48.358;2.122;2023-01-28T01:53:09;20.10;;;11.55;;
76403;SDS011;65232;48.358;2.122;2023-01-28T01:53:43;19.02;;;11.15;;
76403;SDS011;65232;48.358;2.122;2023-01-28T01:54:10;17.83;;;10.85;;
76403;SDS011;65232;48.358;2.122;2023-01-28T01:54:37;18.92;;;10.77;;
76403;SDS011;65232;48.358;2.122;2023-01-28T01:55:06;17.50;;;10.20;;
76403;SDS011;65232;48.358;2.122;2023-01-28T01:55:36;17.58;;;10.45;;
76403;SDS011;65232;48.358;2.122;2023-01-28T01:56:05;18.90;;;11.13;;
76403;SDS011;65232;48.358;2.122;2023-01-28T01:56:36;16.88;;;10.15;;
76403;SDS011;65232;48.358;2.122;2023-01-28T01:57:05;17.98;;;11.20;;
76403;SDS011;65232;48.358;2.122;2023-01-28T01:57:34;18.52;;;11.35;;
76403;SDS011;65232;48.358;2.122;2023-01-28T01:58:01;21.42;;;12.00;;
76403;SDS011;65232;48.358;2.122;2023-01-28T01:58:32;18.33;;;11.18;;
76403;SDS011;65232;48.358;2.122;2023-01-28T01:59:02;19.90;;;11.25;;
76403;SDS011;65232;48.358;2.122;2023-01-28T01:59:30;16.95;;;9.98;;
76403;SDS011;65232;48.358;2.122;2023-01-28T01:59:57;18.42;;;11.40;;
76403;SDS011;65232;48.358;2.122;2023-01-28T02:00:39;18.48;;;10.57;;
76403;SDS011;65232;48.358;2.122;2023-01-28T02:01:06;18.20;;;10.30;;
76403;SDS011;65232;48.358;2.122;2023-01-28T02:01:32;20.05;;;10.50;;
76403;SDS011;65232;48.358;2.122;2023-01-28T02:01:59;18.10;;;11.15;;
76403;SDS011;65232;48.358;2.122;2023-01-28T02:02:28;20.08;;;11.52;;
76403;SDS011;65232;48.358;2.122;2023-01-28T02:02:54;17.92;;;10.50;;
76403;SDS011;65232;48.358;2.122;2023-01-28T02:03:22;19.42;;;11.00;;
76403;SDS011;65232;48.358;2.122;2023-01-28T02:03:58;19.33;;;10.65;;
76403;SDS011;65232;48.358;2.122;2023-01-28T02:04:29;19.58;;;11.25;;
76403;SDS011;65232;48.358;2.122;2023-01-28T02:04:57;18.05;;;10.27;;
76403;SDS011;65232;48.358;2.122;2023-01-28T02:05:23;20.38;;;10.98;;
76403;SDS011;65232;48.358;2.122;2023-01-28T02:05:49;17.63;;;11.13;;
76403;SDS011;65232;48.358;2.122;2023-01-28T02:06:15;19.02;;;10.85;;
76403;SDS011;65232;48.358;2.122;2023-01-28T02:07:07;18.48;;;10.52;;
76403;SDS011;65232;48.358;2.122;2023-01-28T02:07:38;17.40;;;10.23;;
76403;SDS011;65232;48.358;2.122;2023-01-28T02:08:05;18.42;;;10.40;;
76403;SDS011;65232;48.358;2.122;2023-01-28T02:08:46;19.00;;;10.65;;
76403;SDS011;65232;48.358;2.122;2023-01-28T02:09:30;17.10;;;10.45;;
76403;SDS011;65232;48.358;2.122;2023-01-28T02:10:00;18.50;;;9.73;;
76403;SDS011;65232;48.358;2.122;2023-01-28T02:10:25;18.58;;;10.88;;
76403;SDS011;65232;48.358;2.122;2023-01-28T02:10:52;19.77;;;10.05;;
76403;SDS011;65232;48.358;2.122;2023-01-28T02:11:20;19.30;;;10.00;;
76403;SDS011;65232;48.358;2.122;2023-01-28T02:11:49;20.77;;;10.60;;
76403;SDS011;65232;48.358;2.122;2023-01-28T02:12:21;17.65;;;10.85;;
76403;SDS011;65232;48.358;2.122;2023-01-28T02:12:52;19.27;;;11.18;;
76403;SDS011;65232;48.358;2.122;2023-01-28T02:13:26;21.00;;;10.77;;
76403;SDS011;65232;48.358;2.122;2023-01-28T02:13:55;17.25;;;10.05;;
76403;SDS011;65232;48.358;2.122;2023-01-28T02:14:26;18.75;;;11.25;;
76403;SDS011;65232;48.358;2.122;2023-01-28T02:14:56;17.05;;;9.75;;
76403;SDS011;65232;48.358;2.122;2023-01-28T02:15:26;19.30;;;10.40;;
76403;SDS011;65232;48.358;2.122;2023-01-28T02:15:54;18.38;;;10.20;;
76403;SDS011;65232;48.358;2.122;2023-01-28T02:16:22;14.07;;;8.27;;
76403;SDS011;65232;48.358;2.122;2023-01-28T02:16:49;18.65;;;10.45;;
76403;SDS011;65232;48.358;2.122;2023-01-28T02:17:15;19.27;;;10.70;;
76403;SDS011;65232;48.358;2.122;2023-01-28T02:17:41;21.85;;;10.88;;
76403;SDS011;65232;48.358;2.122;2023-01-28T02:18:07;18.80;;;10.77;;
76403;SDS011;65232;48.358;2.122;2023-01-28T02:18:32;18.48;;;10.60;;
76403;SDS011;65232;48.358;2.122;2023-01-28T02:18:58;18.70;;;10.57;;
76403;SDS011;65232;48.358;2.122;2023-01-28T02:19:25;18.55;;;10.85;;
76403;SDS011;65232;48.358;2.122;2023-01-28T02:19:59;20.20;;;11.48;;
76403;SDS011;65232;48.358;2.122;2023-01-28T02:22:19;16.13;;;8.68;;
76403;SDS011;65232;48.358;2.122;2023-01-28T02:24:22;18.15;;;9.55;;
76403;SDS011;65232;48.358;2.122;2023-01-28T02:30:56;15.77;;;9.43;;
76403;SDS011;65232;48.358;2.122;2023-01-28T02:31:30;17.23;;;9.00;;
76403;SDS011;65232;48.358;2.122;2023-01-28T02:32:03;16.33;;;8.77;;
76403;SDS011;65232;48.358;2.122;2023-01-28T02:32:36;16.70;;;9.73;;
76403;SDS011;65232;48.358;2.122;2023-01-28T02:33:04;21.58;;;10.82;;
76403;SDS011;65232;48.358;2.122;2023-01-28T02:33:40;16.30;;;9.27;;
76403;SDS011;65232;48.358;2.122;2023-01-28T02:34:47;18.63;;;10.32;;
76403;SDS011;65232;48.358;2.122;2023-01-28T02:35:28;19.95;;;9.95;;
76403;SDS011;65232;48.358;2.122;2023-01-28T02:36:05;14.60;;;8.55;;
76403;SDS011;65232;48.358;2.122;2023-01-28T02:36:47;18.77;;;9.88;;
76403;SDS011;65232;48.358;2.122;2023-01-28T02:37:46;20.02;;;9.82;;
76403;SDS011;65232;48.358;2.122;2023-01-28T02:38:40;19.60;;;9.93;;
76403;SDS011;65232;48.358;2.122;2023-01-28T02:39:15;16.00;;;9.20;;
76403;SDS011;65232;48.358;2.122;2023-01-28T02:39:46;19.83;;;10.15;;
76403;SDS011;65232;48.358;2.122;2023-01-28T02:40:18;17.35;;;9.65;;
76403;SDS011;65232;48.358;2.122;2023-01-28T02:40:49;17.33;;;9.85;;
76403;SDS011;65232;48.358;2.122;2023-01-28T02:41:36;17.80;;;10.07;;
76403;SDS011;65232;48.358;2.122;2023-01-28T02:42:51;18.20;;;8.98;;
76403;SDS011;65232;48.358;2.122;2023-01-28T02:43:17;17.83;;;9.73;;
76403;SDS011;65232;48.358;2.122;2023-01-28T02:43:43;19.35;;;10.35;;
76403;SDS011;65232;48.358;2.122;2023-01-28T02:44:10;17.83;;;10.32;;
76403;SDS011;65232;48.358;2.122;2023-01-28T02:44:36;19.00;;;10.75;;
76403;SDS011;65232;48.358;2.122;2023-01-28T02:45:02;19.92;;;10.18;;
76403;SDS011;65232;48.358;2.122;2023-01-28T02:45:32;18.50;;;10.13;;
76403;SDS011;65232;48.358;2.122;2023-01-28T02:47:01;18.75;;;9.80;;
76403;SDS011;65232;48.358;2.122;2023-01-28T02:47:46;19.05;;;9.38;;
76403;SDS011;65232;48.358;2.122;2023-01-28T02:48:24;17.25;;;9.52;;
76403;SDS011;65232;48.358;2.122;2023-01-28T02:48:49;19.02;;;10.05;;
76403;SDS011;65232;48.358;2.122;2023-01-28T02:49:16;18.85;;;11.00;;
76403;SDS011;65232;48.358;2.122;2023-01-28T02:49:49;18.95;;;10.75;;
76403;SDS011;65232;48.358;2.122;2023-01-28T02:50:17;19.58;;;11.00;;
76403;SDS011;65232;48.358;2.122;2023-01-28T02:53:44;18.83;;;9.18;;
76403;SDS011;65232;48.358;2.122;2023-01-28T02:55:02;15.40;;;8.55;;
76403;SDS011;65232;48.358;2.122;2023-01-28T02:55:52;18.13;;;10.10;;
76403;SDS011;65232;48.358;2.122;2023-01-28T02:56:26;14.30;;;8.98;;
76403;SDS011;65232;48.358;2.122;2023-01-28T02:57:37;18.65;;;9.27;;
76403;SDS011;65232;48.358;2.122;2023-01-28T02:59:03;16.55;;;8.93;;
76403;SDS011;65232;48.358;2.122;2023-01-28T03:00:00;15.43;;;8.73;;
76403;SDS011;65232;48.358;2.122;2023-01-28T03:00:37;14.10;;;8.30;;
76403;SDS011;65232;48.358;2.122;2023-01-28T03:01:55;14.35;;;8.40;;
76403;SDS011;65232;48.358;2.122;2023-01-28T03:03:42;14.45;;;8.15;;
76403;SDS011;65232;48.358;2.122;2023-01-28T03:04:17;14.05;;;8.60;;
76403;SDS011;65232;48.358;2.122;2023-01-28T03:05:48;15.18;;;8.63;;
76403;SDS011;65232;48.358;2.122;2023-01-28T03:06:36;16.83;;;8.60;;
76403;SDS011;65232;48.358;2.122;2023-01-28T03:07:06;15.02;;;8.20;;
76403;SDS011;65232;48.358;2.122;2023-01-28T03:07:36;15.88;;;8.40;;
76403;SDS011;65232;48.358;2.122;2023-01-28T03:08:03;15.20;;;8.43;;
76403;SDS011;65232;48.358;2.122;2023-01-28T03:08:55;15.93;;;8.77;;
76403;SDS011;65232;48.358;2.122;2023-01-28T03:09:45;14.27;;;8.10;;
76403;SDS011;65232;48.358;2.122;2023-01-28T03:10:19;15.63;;;8.48;;
76403;SDS011;65232;48.358;2.122;2023-01-28T03:10:47;17.50;;;8.95;;